• Join FlightAware (Why Join?)
  • Login
  • US Flag 
12:33PM EDT


 

Airport Tracker/Info


-or-


 

Live Flight TrackerFlight Track Log ✈ KAP927 ✈ 21-Jun-2013 ✈ KOGS - KALB

Flight Track Log - Related Links

Times and Time Zones

All times are in EDT time to prevent confusion due to time zone crossing. See the KAP927 flight status page for this flight to view local times or setup timezone preferences in your user account.

Time Position Orientation Groundspeed Altitude Reporting Facility
EDT Latitude Longitude Course Direction KTS MPH feet Rate Location/Type
07:16AM 44.4467 -75.2986 149° Southeast 149 171 4,400  Level Boston Center
07:17AM 44.4142 -75.2622 141° Southeast 149 171 5,000 480 Climbing Boston Center
07:18AM 44.3817 -75.2375 151° Southeast 144 166 5,400 420 Climbing Boston Center
07:19AM 44.3469 -75.2011 143° Southeast 144 166 5,900 480 Climbing Boston Center
07:20AM 44.3122 -75.1733 150° Southeast 138 159 6,400 420 Climbing Boston Center
07:21AM 44.4902 -75.2947 149° Southeast  Level Estimated
07:21AM 44.2775 -75.1425 148° Southeast 138 159 6,800  Level Boston Center
07:22AM 44.2428 -75.1122 148° Southeast 143 165 7,300 300 Climbing Boston Center
07:23AM 44.2061 -75.0786 147° Southeast 149 171 7,500 60 Climbing Boston Center
07:24AM 44.1631 -75.0419 149° Southeast 163 188 7,500  Level Boston Center
07:25AM 44.1203 -75.0025 146° Southeast 172 198 7,500  Level Boston Center
07:26AM 44.0794 -74.9661 147° Southeast 179 206 7,500  Level Boston Center
07:27AM 44.0364 -74.9267 147° Southeast 179 206 7,500  Level Boston Center
07:28AM 43.9956 -74.8931 149° Southeast 174 200 7,500  Level Boston Center
07:29AM 43.9567 -74.8542 144° Southeast 174 200 7,500  Level Boston Center
07:30AM 43.9178 -74.8208 148° Southeast 174 200 7,500  Level Boston Center
07:31AM 43.8789 -74.7847 146° Southeast 174 200 7,500  Level Boston Center
07:32AM 43.8381 -74.7486 147° Southeast 174 200 7,500  Level Boston Center
07:33AM 43.7969 -74.7153 150° Southeast 174 200 7,500  Level Boston Center
07:34AM 43.7539 -74.6792 149° Southeast 174 200 7,500  Level Boston Center
07:35AM 43.7150 -74.6406 144° Southeast 174 200 7,500  Level Boston Center
07:36AM 43.6742 -74.6072 149° Southeast 180 207 7,500  Level Boston Center
07:37AM 43.6331 -74.5686 146° Southeast 180 207 7,500  Level Boston Center
07:38AM 43.5900 -74.5328 149° Southeast 180 207 7,500  Level Boston Center
07:39AM 43.5508 -74.5028 151° Southeast 174 200 7,500  Level Boston Center
07:40AM 43.5039 -74.4611 147° Southeast 177 204 7,500  Level Boston Center
07:41AM 43.4647 -74.4283 149° Southeast 173 199 7,500  Level Boston Center
07:42AM 43.4236 -74.3925 148° Southeast 174 200 7,500  Level Boston Center
07:43AM 43.3847 -74.3542 144° Southeast 176 203 7,500  Level Boston Center
07:44AM 43.3417 -74.3186 149° Southeast 175 201 7,500  Level Boston Center
07:45AM 43.2944 -74.2744 146° Southeast 176 203 7,500 -240 Level Boston Center
07:46AM 43.2553 -74.2419 149° Southeast 183 211 7,100 -480 Descending Boston Center
07:47AM 43.2144 -74.1892 137° Southeast 207 238 6,600 -600 Descending Boston Center
07:48AM 43.1714 -74.1397 140° Southeast 202 232 6,000 -600 Descending Boston Center
07:49AM 43.1325 -74.0875 136° Southeast 196 226 5,500 -600 Descending Boston Center
07:50AM 43.0789 -74.0461 151° Southeast 192 221 4,800 -660 Descending Boston Center
07:51AM 43.0314 -74.0136 153° Southeast 187 215 4,200 -600 Descending Boston Center
07:52AM 42.9817 -73.9869 159° South 190 219 3,600 -360 Descending Boston Center
07:53AM 42.9489 -73.9633 152° Southeast 193 222 3,500 -60 Descending Boston Center
07:54AM 42.8928 -73.9308 157° South 167 192 3,500  Level Boston Center
07:55AM 42.8517 -73.9069 157° South 164 189 3,500 -180 Level Boston Center
07:56AM 42.8081 -73.8833 158° South 171 197 3,200 -480 Descending Boston Center
07:57AM 42.7644 -73.8683 166° South 186 214 2,600 -840 Descending Boston Center
07:58AM 42.7167 -73.8531 167° South 165 190 1,700 -900 Descending Boston Center
07:59AM 42.7172 -73.8106 89° East 127 146 900 -840 Descending Boston Center
08:01AM 42.7491 -73.8020 26° Northeast  Level Estimated
08:08AM 42.7491 -73.8020 160° South  Level Estimated
08:09AM 42.7491 -73.8020 160° South  Level Estimated
08:10AM 42.7491 -73.8020 160° South  Level Estimated
08:11AM 42.7491 -73.8020 160° South  Level Estimated